sensor_id;sensor_type;location;lat;lon;timestamp;P1;durP1;ratioP1;P2;durP2;ratioP2
30307;SDS011;17114;52.314;8.910;2023-11-21T00:00:02;63.40;;;27.13;;
30307;SDS011;17114;52.314;8.910;2023-11-21T00:02:36;39.45;;;19.02;;
30307;SDS011;17114;52.314;8.910;2023-11-21T00:05:05;64.40;;;26.08;;
30307;SDS011;17114;52.314;8.910;2023-11-21T00:07:34;63.92;;;28.85;;
30307;SDS011;17114;52.314;8.910;2023-11-21T00:10:01;62.17;;;27.85;;
30307;SDS011;17114;52.314;8.910;2023-11-21T00:12:29;52.75;;;27.27;;
30307;SDS011;17114;52.314;8.910;2023-11-21T00:14:55;65.82;;;27.23;;
30307;SDS011;17114;52.314;8.910;2023-11-21T00:17:24;61.00;;;28.85;;
30307;SDS011;17114;52.314;8.910;2023-11-21T00:19:52;59.58;;;27.73;;
30307;SDS011;17114;52.314;8.910;2023-11-21T00:22:19;60.67;;;29.42;;
30307;SDS011;17114;52.314;8.910;2023-11-21T00:24:46;56.45;;;28.27;;
30307;SDS011;17114;52.314;8.910;2023-11-21T00:27:14;60.05;;;29.25;;
30307;SDS011;17114;52.314;8.910;2023-11-21T00:29:40;68.90;;;30.63;;
30307;SDS011;17114;52.314;8.910;2023-11-21T00:32:07;70.45;;;30.05;;
30307;SDS011;17114;52.314;8.910;2023-11-21T00:34:35;64.05;;;31.75;;
30307;SDS011;17114;52.314;8.910;2023-11-21T00:37:02;65.10;;;30.77;;
30307;SDS011;17114;52.314;8.910;2023-11-21T00:39:29;73.00;;;31.92;;
30307;SDS011;17114;52.314;8.910;2023-11-21T00:41:56;68.40;;;31.65;;
30307;SDS011;17114;52.314;8.910;2023-11-21T00:44:22;77.22;;;32.05;;
30307;SDS011;17114;52.314;8.910;2023-11-21T00:46:49;71.38;;;32.78;;
30307;SDS011;17114;52.314;8.910;2023-11-21T00:49:16;72.57;;;31.38;;
30307;SDS011;17114;52.314;8.910;2023-11-21T00:51:43;74.28;;;33.88;;
30307;SDS011;17114;52.314;8.910;2023-11-21T00:54:10;78.70;;;34.28;;
30307;SDS011;17114;52.314;8.910;2023-11-21T00:56:37;72.63;;;33.35;;
30307;SDS011;17114;52.314;8.910;2023-11-21T00:59:04;77.75;;;33.65;;
30307;SDS011;17114;52.314;8.910;2023-11-21T01:01:31;80.57;;;34.25;;
30307;SDS011;17114;52.314;8.910;2023-11-21T01:03:58;79.00;;;33.80;;
30307;SDS011;17114;52.314;8.910;2023-11-21T01:06:24;85.65;;;34.25;;
30307;SDS011;17114;52.314;8.910;2023-11-21T01:08:51;71.40;;;31.95;;
30307;SDS011;17114;52.314;8.910;2023-11-21T01:11:18;86.38;;;35.45;;
30307;SDS011;17114;52.314;8.910;2023-11-21T01:13:46;87.35;;;36.63;;
30307;SDS011;17114;52.314;8.910;2023-11-21T01:16:13;80.20;;;35.15;;
30307;SDS011;17114;52.314;8.910;2023-11-21T01:18:40;90.45;;;37.33;;
30307;SDS011;17114;52.314;8.910;2023-11-21T01:21:06;96.80;;;37.70;;
30307;SDS011;17114;52.314;8.910;2023-11-21T01:23:35;80.43;;;33.90;;
30307;SDS011;17114;52.314;8.910;2023-11-21T01:26:02;94.95;;;37.30;;
30307;SDS011;17114;52.314;8.910;2023-11-21T01:28:29;86.00;;;35.85;;
30307;SDS011;17114;52.314;8.910;2023-11-21T01:30:56;85.43;;;35.20;;
30307;SDS011;17114;52.314;8.910;2023-11-21T01:33:25;85.05;;;36.05;;
30307;SDS011;17114;52.314;8.910;2023-11-21T01:35:52;84.25;;;34.88;;
30307;SDS011;17114;52.314;8.910;2023-11-21T01:38:22;88.68;;;34.75;;
30307;SDS011;17114;52.314;8.910;2023-11-21T01:40:48;89.18;;;35.28;;
30307;SDS011;17114;52.314;8.910;2023-11-21T01:43:15;85.00;;;36.35;;
30307;SDS011;17114;52.314;8.910;2023-11-21T01:45:43;94.85;;;35.90;;
30307;SDS011;17114;52.314;8.910;2023-11-21T01:48:11;89.65;;;36.70;;
30307;SDS011;17114;52.314;8.910;2023-11-21T01:50:39;92.80;;;35.55;;
30307;SDS011;17114;52.314;8.910;2023-11-21T01:53:07;95.32;;;36.67;;
30307;SDS011;17114;52.314;8.910;2023-11-21T01:55:34;84.25;;;34.92;;
30307;SDS011;17114;52.314;8.910;2023-11-21T01:58:01;90.30;;;36.45;;
30307;SDS011;17114;52.314;8.910;2023-11-21T02:00:28;85.75;;;35.85;;
30307;SDS011;17114;52.314;8.910;2023-11-21T02:02:56;81.63;;;34.17;;
30307;SDS011;17114;52.314;8.910;2023-11-21T02:05:23;87.30;;;34.35;;
30307;SDS011;17114;52.314;8.910;2023-11-21T02:07:50;83.95;;;34.95;;
30307;SDS011;17114;52.314;8.910;2023-11-21T02:10:19;87.10;;;35.10;;
30307;SDS011;17114;52.314;8.910;2023-11-21T02:12:50;84.85;;;33.83;;
30307;SDS011;17114;52.314;8.910;2023-11-21T02:15:17;85.63;;;33.75;;
30307;SDS011;17114;52.314;8.910;2023-11-21T02:17:47;93.78;;;34.53;;
30307;SDS011;17114;52.314;8.910;2023-11-21T02:20:20;85.28;;;32.55;;
30307;SDS011;17114;52.314;8.910;2023-11-21T02:22:50;80.22;;;32.65;;
30307;SDS011;17114;52.314;8.910;2023-11-21T02:27:54;96.18;;;33.83;;
30307;SDS011;17114;52.314;8.910;2023-11-21T02:30:22;94.80;;;35.00;;
30307;SDS011;17114;52.314;8.910;2023-11-21T02:32:51;89.18;;;32.58;;
30307;SDS011;17114;52.314;8.910;2023-11-21T02:35:23;92.57;;;32.67;;
30307;SDS011;17114;52.314;8.910;2023-11-21T02:37:52;90.38;;;34.67;;
30307;SDS011;17114;52.314;8.910;2023-11-21T02:40:20;98.20;;;34.22;;
30307;SDS011;17114;52.314;8.910;2023-11-21T02:42:47;99.60;;;34.13;;
30307;SDS011;17114;52.314;8.910;2023-11-21T02:45:14;101.03;;;34.80;;
30307;SDS011;17114;52.314;8.910;2023-11-21T02:47:44;96.75;;;34.20;;
30307;SDS011;17114;52.314;8.910;2023-11-21T02:50:12;94.43;;;34.28;;
30307;SDS011;17114;52.314;8.910;2023-11-21T02:52:39;105.90;;;36.70;;
30307;SDS011;17114;52.314;8.910;2023-11-21T02:55:08;106.03;;;35.22;;
30307;SDS011;17114;52.314;8.910;2023-11-21T02:57:35;107.18;;;34.05;;
30307;SDS011;17114;52.314;8.910;2023-11-21T03:00:02;101.10;;;34.20;;
30307;SDS011;17114;52.314;8.910;2023-11-21T03:02:34;96.38;;;32.42;;
30307;SDS011;17114;52.314;8.910;2023-11-21T03:05:06;100.38;;;34.08;;
30307;SDS011;17114;52.314;8.910;2023-11-21T03:07:36;100.93;;;34.30;;
30307;SDS011;17114;52.314;8.910;2023-11-21T03:10:04;104.15;;;34.28;;
30307;SDS011;17114;52.314;8.910;2023-11-21T03:12:32;95.53;;;32.83;;
30307;SDS011;17114;52.314;8.910;2023-11-21T03:14:59;113.45;;;35.17;;
30307;SDS011;17114;52.314;8.910;2023-11-21T03:17:26;98.10;;;32.08;;
30307;SDS011;17114;52.314;8.910;2023-11-21T03:19:52;103.78;;;33.50;;
30307;SDS011;17114;52.314;8.910;2023-11-21T03:22:20;102.07;;;31.27;;
30307;SDS011;17114;52.314;8.910;2023-11-21T03:24:47;99.82;;;32.35;;
30307;SDS011;17114;52.314;8.910;2023-11-21T03:27:14;92.60;;;31.77;;
30307;SDS011;17114;52.314;8.910;2023-11-21T03:29:41;99.57;;;31.67;;
30307;SDS011;17114;52.314;8.910;2023-11-21T03:32:08;104.28;;;32.25;;
30307;SDS011;17114;52.314;8.910;2023-11-21T03:34:34;101.10;;;31.48;;
30307;SDS011;17114;52.314;8.910;2023-11-21T03:37:01;102.00;;;31.45;;
30307;SDS011;17114;52.314;8.910;2023-11-21T03:39:28;104.00;;;31.30;;
30307;SDS011;17114;52.314;8.910;2023-11-21T03:41:55;99.30;;;30.75;;
30307;SDS011;17114;52.314;8.910;2023-11-21T03:44:22;97.65;;;31.63;;
30307;SDS011;17114;52.314;8.910;2023-11-21T03:46:49;109.57;;;32.42;;
30307;SDS011;17114;52.314;8.910;2023-11-21T03:49:16;103.93;;;32.63;;
30307;SDS011;17114;52.314;8.910;2023-11-21T03:51:43;102.93;;;31.75;;
30307;SDS011;17114;52.314;8.910;2023-11-21T03:54:09;105.32;;;33.00;;
30307;SDS011;17114;52.314;8.910;2023-11-21T03:56:37;120.35;;;34.55;;
30307;SDS011;17114;52.314;8.910;2023-11-21T03:59:03;120.10;;;33.92;;
30307;SDS011;17114;52.314;8.910;2023-11-21T04:01:31;111.07;;;32.88;;
30307;SDS011;17114;52.314;8.910;2023-11-21T04:03:58;118.43;;;32.72;;
30307;SDS011;17114;52.314;8.910;2023-11-21T04:06:25;121.70;;;34.63;;
30307;SDS011;17114;52.314;8.910;2023-11-21T04:08:52;131.45;;;33.67;;
30307;SDS011;17114;52.314;8.910;2023-11-21T04:11:19;132.80;;;33.80;;
30307;SDS011;17114;52.314;8.910;2023-11-21T04:13:46;132.27;;;36.08;;
30307;SDS011;17114;52.314;8.910;2023-11-21T04:16:13;141.57;;;36.47;;
30307;SDS011;17114;52.314;8.910;2023-11-21T04:18:40;122.20;;;36.70;;
30307;SDS011;17114;52.314;8.910;2023-11-21T04:21:07;127.55;;;38.30;;
30307;SDS011;17114;52.314;8.910;2023-11-21T04:23:34;126.45;;;35.95;;
30307;SDS011;17114;52.314;8.910;2023-11-21T04:26:02;112.53;;;34.08;;
30307;SDS011;17114;52.314;8.910;2023-11-21T04:28:29;127.90;;;33.88;;
30307;SDS011;17114;52.314;8.910;2023-11-21T04:30:56;130.45;;;35.70;;
30307;SDS011;17114;52.314;8.910;2023-11-21T04:33:23;130.75;;;35.28;;
30307;SDS011;17114;52.314;8.910;2023-11-21T04:35:51;125.05;;;35.75;;
30307;SDS011;17114;52.314;8.910;2023-11-21T04:38:18;137.80;;;36.67;;
30307;SDS011;17114;52.314;8.910;2023-11-21T04:40:45;137.60;;;36.83;;
30307;SDS011;17114;52.314;8.910;2023-11-21T04:43:12;128.95;;;35.65;;
30307;SDS011;17114;52.314;8.910;2023-11-21T04:45:39;123.65;;;33.88;;
30307;SDS011;17114;52.314;8.910;2023-11-21T04:48:07;114.82;;;32.92;;
30307;SDS011;17114;52.314;8.910;2023-11-21T04:50:34;134.32;;;36.65;;
30307;SDS011;17114;52.314;8.910;2023-11-21T04:53:01;120.75;;;35.35;;
30307;SDS011;17114;52.314;8.910;2023-11-21T04:55:28;113.60;;;33.80;;
30307;SDS011;17114;52.314;8.910;2023-11-21T04:57:55;125.22;;;33.80;;
30307;SDS011;17114;52.314;8.910;2023-11-21T05:00:22;109.65;;;33.40;;
30307;SDS011;17114;52.314;8.910;2023-11-21T05:02:50;110.45;;;32.00;;
30307;SDS011;17114;52.314;8.910;2023-11-21T05:05:17;109.03;;;31.98;;
30307;SDS011;17114;52.314;8.910;2023-11-21T05:07:44;130.02;;;34.47;;
30307;SDS011;17114;52.314;8.910;2023-11-21T05:10:11;103.95;;;30.90;;
30307;SDS011;17114;52.314;8.910;2023-11-21T05:12:41;104.10;;;32.63;;
30307;SDS011;17114;52.314;8.910;2023-11-21T05:15:08;113.97;;;32.40;;
30307;SDS011;17114;52.314;8.910;2023-11-21T05:17:39;107.43;;;32.35;;
30307;SDS011;17114;52.314;8.910;2023-11-21T05:20:11;99.13;;;31.05;;
30307;SDS011;17114;52.314;8.910;2023-11-21T05:22:40;115.63;;;34.15;;
30307;SDS011;17114;52.314;8.910;2023-11-21T05:25:08;102.28;;;32.50;;
30307;SDS011;17114;52.314;8.910;2023-11-21T05:27:35;90.10;;;29.50;;
30307;SDS011;17114;52.314;8.910;2023-11-21T05:30:03;104.88;;;30.98;;
30307;SDS011;17114;52.314;8.910;2023-11-21T05:32:34;101.57;;;30.65;;
30307;SDS011;17114;52.314;8.910;2023-11-21T05:35:01;91.75;;;28.77;;
30307;SDS011;17114;52.314;8.910;2023-11-21T05:37:28;100.22;;;28.55;;
30307;SDS011;17114;52.314;8.910;2023-11-21T05:39:56;105.32;;;29.98;;
30307;SDS011;17114;52.314;8.910;2023-11-21T05:42:23;95.90;;;29.10;;
30307;SDS011;17114;52.314;8.910;2023-11-21T05:44:50;86.60;;;26.35;;
30307;SDS011;17114;52.314;8.910;2023-11-21T05:47:17;90.80;;;24.50;;
30307;SDS011;17114;52.314;8.910;2023-11-21T05:49:44;81.07;;;26.85;;
30307;SDS011;17114;52.314;8.910;2023-11-21T05:52:16;82.40;;;24.80;;
30307;SDS011;17114;52.314;8.910;2023-11-21T05:54:44;87.70;;;24.52;;
30307;SDS011;17114;52.314;8.910;2023-11-21T05:57:11;69.13;;;23.77;;
30307;SDS011;17114;52.314;8.910;2023-11-21T05:59:37;78.63;;;22.80;;
30307;SDS011;17114;52.314;8.910;2023-11-21T06:02:04;84.00;;;23.40;;
30307;SDS011;17114;52.314;8.910;2023-11-21T06:04:31;79.57;;;23.35;;
30307;SDS011;17114;52.314;8.910;2023-11-21T06:06:58;79.10;;;22.10;;
30307;SDS011;17114;52.314;8.910;2023-11-21T06:09:26;73.82;;;20.50;;
30307;SDS011;17114;52.314;8.910;2023-11-21T06:11:53;77.32;;;20.95;;
30307;SDS011;17114;52.314;8.910;2023-11-21T06:14:20;71.82;;;20.60;;
30307;SDS011;17114;52.314;8.910;2023-11-21T06:16:48;79.57;;;22.10;;
30307;SDS011;17114;52.314;8.910;2023-11-21T06:19:17;83.25;;;23.23;;
30307;SDS011;17114;52.314;8.910;2023-11-21T06:21:47;73.53;;;22.60;;
30307;SDS011;17114;52.314;8.910;2023-11-21T06:24:14;64.93;;;22.23;;
30307;SDS011;17114;52.314;8.910;2023-11-21T06:26:41;78.60;;;23.38;;
30307;SDS011;17114;52.314;8.910;2023-11-21T06:29:08;61.58;;;20.17;;
30307;SDS011;17114;52.314;8.910;2023-11-21T06:31:35;70.40;;;21.08;;
30307;SDS011;17114;52.314;8.910;2023-11-21T06:34:02;72.43;;;19.85;;
30307;SDS011;17114;52.314;8.910;2023-11-21T06:36:29;67.28;;;19.63;;
30307;SDS011;17114;52.314;8.910;2023-11-21T06:38:57;65.03;;;19.42;;
30307;SDS011;17114;52.314;8.910;2023-11-21T06:41:23;69.85;;;19.65;;
30307;SDS011;17114;52.314;8.910;2023-11-21T06:43:50;53.13;;;18.13;;
30307;SDS011;17114;52.314;8.910;2023-11-21T06:46:17;71.68;;;20.92;;
30307;SDS011;17114;52.314;8.910;2023-11-21T06:48:46;57.10;;;18.55;;
30307;SDS011;17114;52.314;8.910;2023-11-21T06:51:13;53.42;;;18.70;;
30307;SDS011;17114;52.314;8.910;2023-11-21T06:53:39;50.97;;;18.50;;
30307;SDS011;17114;52.314;8.910;2023-11-21T06:56:18;53.30;;;19.13;;
30307;SDS011;17114;52.314;8.910;2023-11-21T06:58:46;60.28;;;19.45;;
30307;SDS011;17114;52.314;8.910;2023-11-21T07:01:13;56.78;;;19.83;;
30307;SDS011;17114;52.314;8.910;2023-11-21T07:03:41;57.10;;;20.75;;
30307;SDS011;17114;52.314;8.910;2023-11-21T07:06:08;65.40;;;21.58;;
30307;SDS011;17114;52.314;8.910;2023-11-21T07:08:35;56.58;;;20.92;;
30307;SDS011;17114;52.314;8.910;2023-11-21T07:11:02;59.88;;;21.90;;
30307;SDS011;17114;52.314;8.910;2023-11-21T07:13:30;58.38;;;21.65;;
30307;SDS011;17114;52.314;8.910;2023-11-21T07:15:57;62.40;;;21.77;;
30307;SDS011;17114;52.314;8.910;2023-11-21T07:18:25;65.15;;;22.45;;
30307;SDS011;17114;52.314;8.910;2023-11-21T07:20:52;58.90;;;21.10;;
30307;SDS011;17114;52.314;8.910;2023-11-21T07:23:19;60.85;;;21.98;;
30307;SDS011;17114;52.314;8.910;2023-11-21T07:25:48;54.97;;;21.77;;
30307;SDS011;17114;52.314;8.910;2023-11-21T07:28:15;53.17;;;21.70;;
30307;SDS011;17114;52.314;8.910;2023-11-21T07:30:42;59.53;;;21.80;;
30307;SDS011;17114;52.314;8.910;2023-11-21T07:33:09;61.15;;;23.20;;
30307;SDS011;17114;52.314;8.910;2023-11-21T07:35:36;62.17;;;23.52;;
30307;SDS011;17114;52.314;8.910;2023-11-21T07:38:03;60.60;;;23.80;;
30307;SDS011;17114;52.314;8.910;2023-11-21T07:40:30;68.43;;;24.83;;
30307;SDS011;17114;52.314;8.910;2023-11-21T07:42:57;61.95;;;23.75;;
30307;SDS011;17114;52.314;8.910;2023-11-21T07:45:24;54.72;;;23.17;;
30307;SDS011;17114;52.314;8.910;2023-11-21T07:47:54;66.15;;;24.70;;
30307;SDS011;17114;52.314;8.910;2023-11-21T07:50:22;53.63;;;22.02;;
30307;SDS011;17114;52.314;8.910;2023-11-21T07:52:49;51.78;;;20.13;;
30307;SDS011;17114;52.314;8.910;2023-11-21T07:55:16;43.13;;;17.15;;
30307;SDS011;17114;52.314;8.910;2023-11-21T07:57:43;44.55;;;16.75;;
30307;SDS011;17114;52.314;8.910;2023-11-21T08:00:10;44.67;;;16.48;;
30307;SDS011;17114;52.314;8.910;2023-11-21T08:02:39;37.78;;;15.75;;
30307;SDS011;17114;52.314;8.910;2023-11-21T08:05:09;37.90;;;14.23;;
30307;SDS011;17114;52.314;8.910;2023-11-21T08:07:49;30.20;;;11.95;;
30307;SDS011;17114;52.314;8.910;2023-11-21T08:10:17;28.73;;;11.35;;
30307;SDS011;17114;52.314;8.910;2023-11-21T08:12:44;25.33;;;11.32;;
30307;SDS011;17114;52.314;8.910;2023-11-21T08:15:10;26.48;;;10.07;;
30307;SDS011;17114;52.314;8.910;2023-11-21T08:17:37;21.45;;;9.73;;
30307;SDS011;17114;52.314;8.910;2023-11-21T08:20:05;17.98;;;8.80;;
30307;SDS011;17114;52.314;8.910;2023-11-21T08:22:35;22.05;;;8.73;;
30307;SDS011;17114;52.314;8.910;2023-11-21T08:25:02;21.77;;;8.48;;
30307;SDS011;17114;52.314;8.910;2023-11-21T08:27:30;21.40;;;8.45;;
30307;SDS011;17114;52.314;8.910;2023-11-21T08:29:57;15.32;;;7.85;;
30307;SDS011;17114;52.314;8.910;2023-11-21T08:32:24;16.08;;;7.80;;
30307;SDS011;17114;52.314;8.910;2023-11-21T08:34:51;15.02;;;6.68;;
30307;SDS011;17114;52.314;8.910;2023-11-21T08:37:19;14.43;;;6.63;;
30307;SDS011;17114;52.314;8.910;2023-11-21T08:39:47;21.10;;;7.28;;
30307;SDS011;17114;52.314;8.910;2023-11-21T08:42:14;16.85;;;7.07;;
30307;SDS011;17114;52.314;8.910;2023-11-21T08:44:41;20.13;;;7.25;;
30307;SDS011;17114;52.314;8.910;2023-11-21T08:47:08;16.08;;;7.55;;
30307;SDS011;17114;52.314;8.910;2023-11-21T08:49:35;16.45;;;8.07;;
30307;SDS011;17114;52.314;8.910;2023-11-21T08:52:02;13.68;;;8.00;;
30307;SDS011;17114;52.314;8.910;2023-11-21T08:54:29;15.90;;;7.55;;
30307;SDS011;17114;52.314;8.910;2023-11-21T08:56:57;13.45;;;7.90;;
30307;SDS011;17114;52.314;8.910;2023-11-21T08:59:24;13.40;;;7.93;;
30307;SDS011;17114;52.314;8.910;2023-11-21T09:01:52;13.88;;;7.63;;
30307;SDS011;17114;52.314;8.910;2023-11-21T09:04:19;14.82;;;7.57;;
30307;SDS011;17114;52.314;8.910;2023-11-21T09:06:46;11.82;;;6.18;;
30307;SDS011;17114;52.314;8.910;2023-11-21T09:09:13;10.98;;;6.75;;
30307;SDS011;17114;52.314;8.910;2023-11-21T09:11:40;12.40;;;6.57;;
30307;SDS011;17114;52.314;8.910;2023-11-21T09:14:07;13.10;;;7.07;;
30307;SDS011;17114;52.314;8.910;2023-11-21T09:16:35;17.48;;;7.90;;
30307;SDS011;17114;52.314;8.910;2023-11-21T09:19:02;12.90;;;7.10;;
30307;SDS011;17114;52.314;8.910;2023-11-21T09:21:31;15.32;;;7.00;;
30307;SDS011;17114;52.314;8.910;2023-11-21T09:23:59;14.98;;;8.10;;
30307;SDS011;17114;52.314;8.910;2023-11-21T09:26:26;16.55;;;8.38;;
30307;SDS011;17114;52.314;8.910;2023-11-21T09:28:53;16.13;;;8.38;;
30307;SDS011;17114;52.314;8.910;2023-11-21T09:31:20;17.80;;;8.90;;
30307;SDS011;17114;52.314;8.910;2023-11-21T09:33:49;14.20;;;8.63;;
30307;SDS011;17114;52.314;8.910;2023-11-21T09:36:15;12.88;;;8.02;;
30307;SDS011;17114;52.314;8.910;2023-11-21T09:38:42;13.05;;;8.05;;
30307;SDS011;17114;52.314;8.910;2023-11-21T09:41:15;15.15;;;8.68;;
30307;SDS011;17114;52.314;8.910;2023-11-21T09:43:50;16.00;;;8.60;;
30307;SDS011;17114;52.314;8.910;2023-11-21T09:46:20;16.17;;;9.27;;
30307;SDS011;17114;52.314;8.910;2023-11-21T09:48:50;17.10;;;8.95;;
30307;SDS011;17114;52.314;8.910;2023-11-21T09:51:21;15.48;;;9.30;;
30307;SDS011;17114;52.314;8.910;2023-11-21T09:53:53;17.02;;;9.75;;
30307;SDS011;17114;52.314;8.910;2023-11-21T09:56:21;14.77;;;9.55;;
30307;SDS011;17114;52.314;8.910;2023-11-21T09:58:51;17.13;;;9.10;;
30307;SDS011;17114;52.314;8.910;2023-11-21T10:01:19;12.93;;;8.60;;
30307;SDS011;17114;52.314;8.910;2023-11-21T10:03:49;19.45;;;9.88;;
30307;SDS011;17114;52.314;8.910;2023-11-21T10:06:16;19.08;;;10.88;;
30307;SDS011;17114;52.314;8.910;2023-11-21T10:08:44;21.10;;;11.50;;
30307;SDS011;17114;52.314;8.910;2023-11-21T10:11:21;24.95;;;12.10;;
30307;SDS011;17114;52.314;8.910;2023-11-21T10:13:54;25.48;;;13.93;;
30307;SDS011;17114;52.314;8.910;2023-11-21T10:16:24;25.70;;;14.38;;
30307;SDS011;17114;52.314;8.910;2023-11-21T10:18:53;26.75;;;14.43;;
30307;SDS011;17114;52.314;8.910;2023-11-21T10:21:39;26.90;;;14.70;;
30307;SDS011;17114;52.314;8.910;2023-11-21T10:24:06;25.98;;;14.07;;
30307;SDS011;17114;52.314;8.910;2023-11-21T10:26:33;24.35;;;14.60;;
30307;SDS011;17114;52.314;8.910;2023-11-21T10:29:16;29.17;;;14.95;;
30307;SDS011;17114;52.314;8.910;2023-11-21T10:31:43;25.83;;;14.27;;
30307;SDS011;17114;52.314;8.910;2023-11-21T10:34:15;28.48;;;14.68;;
30307;SDS011;17114;52.314;8.910;2023-11-21T10:36:43;27.48;;;15.30;;
30307;SDS011;17114;52.314;8.910;2023-11-21T10:39:14;31.08;;;16.50;;
30307;SDS011;17114;52.314;8.910;2023-11-21T10:41:44;34.08;;;17.85;;
30307;SDS011;17114;52.314;8.910;2023-11-21T10:44:18;28.38;;;16.20;;
30307;SDS011;17114;52.314;8.910;2023-11-21T10:46:51;27.92;;;15.73;;
30307;SDS011;17114;52.314;8.910;2023-11-21T10:49:23;29.48;;;17.05;;
30307;SDS011;17114;52.314;8.910;2023-11-21T10:51:55;26.92;;;14.60;;
30307;SDS011;17114;52.314;8.910;2023-11-21T10:54:24;28.52;;;15.15;;
30307;SDS011;17114;52.314;8.910;2023-11-21T10:56:58;23.00;;;14.57;;
30307;SDS011;17114;52.314;8.910;2023-11-21T10:59:28;32.72;;;16.60;;
30307;SDS011;17114;52.314;8.910;2023-11-21T11:01:58;30.40;;;16.05;;
30307;SDS011;17114;52.314;8.910;2023-11-21T11:04:28;30.63;;;15.85;;
30307;SDS011;17114;52.314;8.910;2023-11-21T11:06:57;24.08;;;13.88;;
30307;SDS011;17114;52.314;8.910;2023-11-21T11:09:30;26.33;;;14.45;;
30307;SDS011;17114;52.314;8.910;2023-11-21T11:12:01;27.63;;;13.55;;
30307;SDS011;17114;52.314;8.910;2023-11-21T11:14:30;23.00;;;13.73;;
30307;SDS011;17114;52.314;8.910;2023-11-21T11:16:58;21.35;;;12.48;;
30307;SDS011;17114;52.314;8.910;2023-11-21T11:19:28;20.85;;;11.07;;
30307;SDS011;17114;52.314;8.910;2023-11-21T11:30:25;15.85;;;9.73;;
30307;SDS011;17114;52.314;8.910;2023-11-21T11:35:33;15.25;;;9.43;;
30307;SDS011;17114;52.314;8.910;2023-11-21T11:38:08;13.45;;;8.77;;
30307;SDS011;17114;52.314;8.910;2023-11-21T11:40:40;13.88;;;8.90;;
30307;SDS011;17114;52.314;8.910;2023-11-21T11:43:08;15.85;;;8.68;;
30307;SDS011;17114;52.314;8.910;2023-11-21T11:45:36;13.52;;;8.32;;
30307;SDS011;17114;52.314;8.910;2023-11-21T11:48:07;14.93;;;8.73;;
30307;SDS011;17114;52.314;8.910;2023-11-21T11:51:23;14.68;;;8.23;;
30307;SDS011;17114;52.314;8.910;2023-11-21T11:53:38;15.90;;;8.82;;
30307;SDS011;17114;52.314;8.910;2023-11-21T11:59:03;12.88;;;8.32;;
30307;SDS011;17114;52.314;8.910;2023-11-21T12:01:32;15.07;;;9.18;;
30307;SDS011;17114;52.314;8.910;2023-11-21T12:06:53;14.30;;;8.38;;
30307;SDS011;17114;52.314;8.910;2023-11-21T12:09:21;12.88;;;7.90;;
30307;SDS011;17114;52.314;8.910;2023-11-21T12:11:50;13.45;;;8.13;;
30307;SDS011;17114;52.314;8.910;2023-11-21T12:14:17;17.77;;;8.27;;
30307;SDS011;17114;52.314;8.910;2023-11-21T12:16:44;13.30;;;8.05;;
30307;SDS011;17114;52.314;8.910;2023-11-21T12:19:11;12.20;;;7.93;;
30307;SDS011;17114;52.314;8.910;2023-11-21T12:21:38;12.27;;;8.07;;
30307;SDS011;17114;52.314;8.910;2023-11-21T12:24:10;13.95;;;8.45;;
30307;SDS011;17114;52.314;8.910;2023-11-21T12:26:41;13.25;;;8.57;;
30307;SDS011;17114;52.314;8.910;2023-11-21T12:29:08;14.77;;;9.48;;
30307;SDS011;17114;52.314;8.910;2023-11-21T12:31:35;13.32;;;8.73;;
30307;SDS011;17114;52.314;8.910;2023-11-21T12:34:02;13.77;;;8.45;;
30307;SDS011;17114;52.314;8.910;2023-11-21T12:36:30;13.98;;;8.73;;
30307;SDS011;17114;52.314;8.910;2023-11-21T12:38:57;14.75;;;7.72;;
30307;SDS011;17114;52.314;8.910;2023-11-21T12:41:24;14.23;;;7.93;;
30307;SDS011;17114;52.314;8.910;2023-11-21T12:43:51;13.45;;;8.18;;
30307;SDS011;17114;52.314;8.910;2023-11-21T12:46:19;12.77;;;8.30;;
30307;SDS011;17114;52.314;8.910;2023-11-21T12:48:46;13.10;;;8.15;;
30307;SDS011;17114;52.314;8.910;2023-11-21T12:51:13;11.65;;;7.82;;
30307;SDS011;17114;52.314;8.910;2023-11-21T12:53:42;12.02;;;7.45;;
30307;SDS011;17114;52.314;8.910;2023-11-21T12:56:09;13.48;;;7.10;;
30307;SDS011;17114;52.314;8.910;2023-11-21T12:58:38;12.48;;;7.70;;
30307;SDS011;17114;52.314;8.910;2023-11-21T13:01:06;15.52;;;9.05;;
30307;SDS011;17114;52.314;8.910;2023-11-21T13:03:38;16.00;;;9.27;;
30307;SDS011;17114;52.314;8.910;2023-11-21T13:06:06;11.82;;;7.47;;
30307;SDS011;17114;52.314;8.910;2023-11-21T13:08:34;13.77;;;8.30;;
30307;SDS011;17114;52.314;8.910;2023-11-21T13:11:01;13.10;;;7.35;;
30307;SDS011;17114;52.314;8.910;2023-11-21T13:13:29;19.15;;;11.15;;
30307;SDS011;17114;52.314;8.910;2023-11-21T13:15:57;24.13;;;13.00;;
30307;SDS011;17114;52.314;8.910;2023-11-21T13:18:31;18.05;;;10.45;;
30307;SDS011;17114;52.314;8.910;2023-11-21T13:20:58;23.98;;;13.95;;
30307;SDS011;17114;52.314;8.910;2023-11-21T13:23:36;26.33;;;15.00;;
30307;SDS011;17114;52.314;8.910;2023-11-21T13:26:04;19.52;;;11.45;;
30307;SDS011;17114;52.314;8.910;2023-11-21T13:28:33;19.40;;;9.95;;
30307;SDS011;17114;52.314;8.910;2023-11-21T13:31:01;24.10;;;13.75;;
30307;SDS011;17114;52.314;8.910;2023-11-21T13:33:36;21.27;;;12.13;;
30307;SDS011;17114;52.314;8.910;2023-11-21T13:36:05;15.70;;;9.43;;
30307;SDS011;17114;52.314;8.910;2023-11-21T13:38:36;22.17;;;11.82;;
30307;SDS011;17114;52.314;8.910;2023-11-21T13:41:08;16.88;;;10.82;;
30307;SDS011;17114;52.314;8.910;2023-11-21T13:43:36;15.32;;;9.77;;
30307;SDS011;17114;52.314;8.910;2023-11-21T13:46:04;18.08;;;10.68;;
30307;SDS011;17114;52.314;8.910;2023-11-21T13:48:40;14.90;;;9.82;;
30307;SDS011;17114;52.314;8.910;2023-11-21T13:51:19;18.90;;;8.82;;
30307;SDS011;17114;52.314;8.910;2023-11-21T13:53:51;11.45;;;7.82;;
30307;SDS011;17114;52.314;8.910;2023-11-21T13:56:18;12.30;;;8.23;;
30307;SDS011;17114;52.314;8.910;2023-11-21T13:58:51;13.60;;;8.27;;
30307;SDS011;17114;52.314;8.910;2023-11-21T14:01:19;14.07;;;8.02;;
30307;SDS011;17114;52.314;8.910;2023-11-21T14:04:00;14.27;;;7.65;;
30307;SDS011;17114;52.314;8.910;2023-11-21T14:06:43;14.07;;;8.15;;
30307;SDS011;17114;52.314;8.910;2023-11-21T14:09:15;14.95;;;8.55;;
30307;SDS011;17114;52.314;8.910;2023-11-21T14:11:52;13.48;;;8.43;;
30307;SDS011;17114;52.314;8.910;2023-11-21T14:14:22;14.95;;;8.02;;
30307;SDS011;17114;52.314;8.910;2023-11-21T14:16:51;17.75;;;9.82;;
30307;SDS011;17114;52.314;8.910;2023-11-21T14:19:19;13.98;;;7.90;;
30307;SDS011;17114;52.314;8.910;2023-11-21T14:21:46;14.00;;;8.35;;
30307;SDS011;17114;52.314;8.910;2023-11-21T14:24:15;12.25;;;8.00;;
30307;SDS011;17114;52.314;8.910;2023-11-21T14:26:44;13.35;;;8.02;;
30307;SDS011;17114;52.314;8.910;2023-11-21T14:29:13;12.57;;;8.10;;
30307;SDS011;17114;52.314;8.910;2023-11-21T14:31:43;12.05;;;8.25;;
30307;SDS011;17114;52.314;8.910;2023-11-21T14:34:10;18.58;;;10.63;;
30307;SDS011;17114;52.314;8.910;2023-11-21T14:36:38;28.88;;;14.80;;
30307;SDS011;17114;52.314;8.910;2023-11-21T14:39:10;30.95;;;15.95;;
30307;SDS011;17114;52.314;8.910;2023-11-21T14:41:49;26.77;;;14.65;;
30307;SDS011;17114;52.314;8.910;2023-11-21T14:44:16;21.02;;;12.57;;
30307;SDS011;17114;52.314;8.910;2023-11-21T14:46:43;20.13;;;11.07;;
30307;SDS011;17114;52.314;8.910;2023-11-21T14:49:12;17.80;;;10.68;;